sensor_id;sensor_type;location;lat;lon;timestamp;P1;durP1;ratioP1;P2;durP2;ratioP2
2944;SDS011;1482;51.398;7.128;2023-04-24T00:00:23;1.20;;;1.10;;
2944;SDS011;1482;51.398;7.128;2023-04-24T00:02:49;4.50;;;1.57;;
2944;SDS011;1482;51.398;7.128;2023-04-24T00:05:15;1.30;;;0.90;;
2944;SDS011;1482;51.398;7.128;2023-04-24T00:07:43;6.10;;;2.53;;
2944;SDS011;1482;51.398;7.128;2023-04-24T00:10:09;2.57;;;1.10;;
2944;SDS011;1482;51.398;7.128;2023-04-24T00:12:36;2.60;;;1.23;;
2944;SDS011;1482;51.398;7.128;2023-04-24T00:15:02;2.43;;;1.43;;
2944;SDS011;1482;51.398;7.128;2023-04-24T00:17:28;1.40;;;1.30;;
2944;SDS011;1482;51.398;7.128;2023-04-24T00:19:54;1.80;;;1.70;;
2944;SDS011;1482;51.398;7.128;2023-04-24T00:22:29;1.53;;;1.43;;
2944;SDS011;1482;51.398;7.128;2023-04-24T00:24:55;1.70;;;1.60;;
2944;SDS011;1482;51.398;7.128;2023-04-24T00:27:21;1.43;;;1.33;;
2944;SDS011;1482;51.398;7.128;2023-04-24T00:29:46;1.80;;;1.70;;
2944;SDS011;1482;51.398;7.128;2023-04-24T00:32:12;1.47;;;1.37;;
2944;SDS011;1482;51.398;7.128;2023-04-24T00:34:38;1.80;;;1.60;;
2944;SDS011;1482;51.398;7.128;2023-04-24T00:37:04;2.40;;;2.20;;
2944;SDS011;1482;51.398;7.128;2023-04-24T00:39:30;1.80;;;1.70;;
2944;SDS011;1482;51.398;7.128;2023-04-24T00:41:55;6.63;;;1.50;;
2944;SDS011;1482;51.398;7.128;2023-04-24T00:44:21;1.70;;;1.60;;
2944;SDS011;1482;51.398;7.128;2023-04-24T00:46:47;3.93;;;1.70;;
2944;SDS011;1482;51.398;7.128;2023-04-24T00:49:17;2.47;;;1.70;;
2944;SDS011;1482;51.398;7.128;2023-04-24T00:51:44;4.00;;;1.97;;
2944;SDS011;1482;51.398;7.128;2023-04-24T00:54:10;2.60;;;1.50;;
2944;SDS011;1482;51.398;7.128;2023-04-24T00:56:36;2.07;;;1.87;;
2944;SDS011;1482;51.398;7.128;2023-04-24T00:59:02;1.80;;;1.70;;
2944;SDS011;1482;51.398;7.128;2023-04-24T01:01:28;4.23;;;1.93;;
2944;SDS011;1482;51.398;7.128;2023-04-24T01:03:53;2.20;;;2.00;;
2944;SDS011;1482;51.398;7.128;2023-04-24T01:06:20;2.10;;;1.90;;
2944;SDS011;1482;51.398;7.128;2023-04-24T01:08:46;4.47;;;2.47;;
2944;SDS011;1482;51.398;7.128;2023-04-24T01:11:13;2.00;;;1.80;;
2944;SDS011;1482;51.398;7.128;2023-04-24T01:13:39;2.03;;;1.57;;
2944;SDS011;1482;51.398;7.128;2023-04-24T01:16:05;1.83;;;1.70;;
2944;SDS011;1482;51.398;7.128;2023-04-24T01:18:31;1.83;;;1.73;;
2944;SDS011;1482;51.398;7.128;2023-04-24T01:20:57;4.00;;;2.30;;
2944;SDS011;1482;51.398;7.128;2023-04-24T01:23:23;2.57;;;2.37;;
2944;SDS011;1482;51.398;7.128;2023-04-24T01:25:49;2.40;;;2.20;;
2944;SDS011;1482;51.398;7.128;2023-04-24T01:28:16;2.40;;;2.20;;
2944;SDS011;1482;51.398;7.128;2023-04-24T01:30:42;2.23;;;2.03;;
2944;SDS011;1482;51.398;7.128;2023-04-24T01:33:09;3.00;;;2.80;;
2944;SDS011;1482;51.398;7.128;2023-04-24T01:35:35;7.13;;;3.07;;
2944;SDS011;1482;51.398;7.128;2023-04-24T01:38:02;2.57;;;2.20;;
2944;SDS011;1482;51.398;7.128;2023-04-24T01:40:28;2.37;;;2.17;;
2944;SDS011;1482;51.398;7.128;2023-04-24T01:42:53;3.30;;;2.97;;
2944;SDS011;1482;51.398;7.128;2023-04-24T01:45:20;3.00;;;2.37;;
2944;SDS011;1482;51.398;7.128;2023-04-24T01:47:45;3.83;;;2.30;;
2944;SDS011;1482;51.398;7.128;2023-04-24T01:50:11;5.00;;;3.00;;
2944;SDS011;1482;51.398;7.128;2023-04-24T01:52:37;3.30;;;3.00;;
2944;SDS011;1482;51.398;7.128;2023-04-24T01:55:03;3.50;;;3.20;;
2944;SDS011;1482;51.398;7.128;2023-04-24T01:57:30;3.53;;;3.00;;
2944;SDS011;1482;51.398;7.128;2023-04-24T01:59:56;3.67;;;2.77;;
2944;SDS011;1482;51.398;7.128;2023-04-24T02:02:22;3.37;;;3.07;;
2944;SDS011;1482;51.398;7.128;2023-04-24T02:04:49;4.17;;;3.90;;
2944;SDS011;1482;51.398;7.128;2023-04-24T02:07:15;6.57;;;4.73;;
2944;SDS011;1482;51.398;7.128;2023-04-24T02:09:40;5.57;;;5.07;;
2944;SDS011;1482;51.398;7.128;2023-04-24T02:12:06;7.47;;;5.40;;
2944;SDS011;1482;51.398;7.128;2023-04-24T02:14:32;7.93;;;6.43;;
2944;SDS011;1482;51.398;7.128;2023-04-24T02:16:57;9.10;;;6.17;;
2944;SDS011;1482;51.398;7.128;2023-04-24T02:19:23;7.43;;;5.77;;
2944;SDS011;1482;51.398;7.128;2023-04-24T02:21:48;10.93;;;7.77;;
2944;SDS011;1482;51.398;7.128;2023-04-24T02:24:14;11.27;;;6.60;;
2944;SDS011;1482;51.398;7.128;2023-04-24T02:26:40;7.17;;;6.37;;
2944;SDS011;1482;51.398;7.128;2023-04-24T02:29:06;7.77;;;7.00;;
2944;SDS011;1482;51.398;7.128;2023-04-24T02:31:31;10.13;;;8.30;;
2944;SDS011;1482;51.398;7.128;2023-04-24T02:33:57;7.93;;;6.90;;
2944;SDS011;1482;51.398;7.128;2023-04-24T02:36:22;13.27;;;7.40;;
2944;SDS011;1482;51.398;7.128;2023-04-24T02:38:48;11.87;;;8.50;;
2944;SDS011;1482;51.398;7.128;2023-04-24T02:41:14;10.90;;;7.77;;
2944;SDS011;1482;51.398;7.128;2023-04-24T02:43:39;17.37;;;10.00;;
2944;SDS011;1482;51.398;7.128;2023-04-24T02:46:05;9.93;;;8.70;;
2944;SDS011;1482;51.398;7.128;2023-04-24T02:48:30;9.37;;;8.40;;
2944;SDS011;1482;51.398;7.128;2023-04-24T02:50:56;12.80;;;9.53;;
2944;SDS011;1482;51.398;7.128;2023-04-24T02:53:22;15.20;;;9.37;;
2944;SDS011;1482;51.398;7.128;2023-04-24T02:55:48;15.70;;;8.63;;
2944;SDS011;1482;51.398;7.128;2023-04-24T02:58:14;11.57;;;9.10;;
2944;SDS011;1482;51.398;7.128;2023-04-24T03:00:40;13.40;;;9.23;;
2944;SDS011;1482;51.398;7.128;2023-04-24T03:03:06;15.40;;;9.10;;
2944;SDS011;1482;51.398;7.128;2023-04-24T03:05:32;13.83;;;8.10;;
2944;SDS011;1482;51.398;7.128;2023-04-24T03:07:57;17.20;;;8.40;;
2944;SDS011;1482;51.398;7.128;2023-04-24T03:10:23;11.60;;;9.57;;
2944;SDS011;1482;51.398;7.128;2023-04-24T03:12:49;13.13;;;8.90;;
2944;SDS011;1482;51.398;7.128;2023-04-24T03:15:14;13.77;;;9.50;;
2944;SDS011;1482;51.398;7.128;2023-04-24T03:17:40;10.20;;;9.13;;
2944;SDS011;1482;51.398;7.128;2023-04-24T03:20:06;11.03;;;9.40;;
2944;SDS011;1482;51.398;7.128;2023-04-24T03:22:33;10.03;;;8.97;;
2944;SDS011;1482;51.398;7.128;2023-04-24T03:24:59;12.30;;;9.60;;
2944;SDS011;1482;51.398;7.128;2023-04-24T03:27:24;11.40;;;9.80;;
2944;SDS011;1482;51.398;7.128;2023-04-24T03:29:50;10.43;;;9.33;;
2944;SDS011;1482;51.398;7.128;2023-04-24T03:32:22;18.57;;;11.23;;
2944;SDS011;1482;51.398;7.128;2023-04-24T03:34:50;13.60;;;11.17;;
2944;SDS011;1482;51.398;7.128;2023-04-24T03:37:16;12.77;;;10.57;;
2944;SDS011;1482;51.398;7.128;2023-04-24T03:39:42;14.27;;;10.27;;
2944;SDS011;1482;51.398;7.128;2023-04-24T03:42:08;17.63;;;10.77;;
2944;SDS011;1482;51.398;7.128;2023-04-24T03:44:34;16.13;;;10.80;;
2944;SDS011;1482;51.398;7.128;2023-04-24T03:47:00;14.17;;;10.00;;
2944;SDS011;1482;51.398;7.128;2023-04-24T03:49:26;13.30;;;10.83;;
2944;SDS011;1482;51.398;7.128;2023-04-24T03:51:52;13.67;;;11.27;;
2944;SDS011;1482;51.398;7.128;2023-04-24T03:54:18;16.57;;;11.17;;
2944;SDS011;1482;51.398;7.128;2023-04-24T03:56:44;14.37;;;11.07;;
2944;SDS011;1482;51.398;7.128;2023-04-24T03:59:09;14.83;;;10.60;;
2944;SDS011;1482;51.398;7.128;2023-04-24T04:01:35;14.93;;;12.47;;
2944;SDS011;1482;51.398;7.128;2023-04-24T04:04:04;17.43;;;10.83;;
2944;SDS011;1482;51.398;7.128;2023-04-24T04:06:30;13.97;;;10.47;;
2944;SDS011;1482;51.398;7.128;2023-04-24T04:08:56;13.47;;;10.73;;
2944;SDS011;1482;51.398;7.128;2023-04-24T04:11:22;11.70;;;10.13;;
2944;SDS011;1482;51.398;7.128;2023-04-24T04:13:48;17.00;;;11.27;;
2944;SDS011;1482;51.398;7.128;2023-04-24T04:16:14;13.23;;;9.63;;
2944;SDS011;1482;51.398;7.128;2023-04-24T04:18:41;12.97;;;10.47;;
2944;SDS011;1482;51.398;7.128;2023-04-24T04:21:07;15.63;;;10.77;;
2944;SDS011;1482;51.398;7.128;2023-04-24T04:23:33;13.70;;;11.00;;
2944;SDS011;1482;51.398;7.128;2023-04-24T04:25:58;14.33;;;10.13;;
2944;SDS011;1482;51.398;7.128;2023-04-24T04:28:24;16.40;;;9.80;;
2944;SDS011;1482;51.398;7.128;2023-04-24T04:30:50;16.90;;;10.83;;
2944;SDS011;1482;51.398;7.128;2023-04-24T04:33:19;24.50;;;11.40;;
2944;SDS011;1482;51.398;7.128;2023-04-24T04:35:45;15.40;;;11.13;;
2944;SDS011;1482;51.398;7.128;2023-04-24T04:38:13;15.07;;;11.60;;
2944;SDS011;1482;51.398;7.128;2023-04-24T04:40:40;14.37;;;11.97;;
2944;SDS011;1482;51.398;7.128;2023-04-24T04:43:05;19.33;;;12.67;;
2944;SDS011;1482;51.398;7.128;2023-04-24T04:45:31;22.37;;;12.67;;
2944;SDS011;1482;51.398;7.128;2023-04-24T04:47:58;13.80;;;10.40;;
2944;SDS011;1482;51.398;7.128;2023-04-24T04:50:25;14.60;;;11.37;;
2944;SDS011;1482;51.398;7.128;2023-04-24T04:52:51;16.30;;;11.10;;
2944;SDS011;1482;51.398;7.128;2023-04-24T04:55:17;15.50;;;12.87;;
2944;SDS011;1482;51.398;7.128;2023-04-24T04:57:44;11.77;;;10.10;;
2944;SDS011;1482;51.398;7.128;2023-04-24T05:00:13;17.73;;;10.53;;
2944;SDS011;1482;51.398;7.128;2023-04-24T05:02:39;13.97;;;10.80;;
2944;SDS011;1482;51.398;7.128;2023-04-24T05:05:05;12.53;;;9.27;;
2944;SDS011;1482;51.398;7.128;2023-04-24T05:07:31;16.37;;;9.43;;
2944;SDS011;1482;51.398;7.128;2023-04-24T05:09:58;16.40;;;10.40;;
2944;SDS011;1482;51.398;7.128;2023-04-24T05:12:23;12.57;;;9.80;;
2944;SDS011;1482;51.398;7.128;2023-04-24T05:14:49;11.77;;;9.97;;
2944;SDS011;1482;51.398;7.128;2023-04-24T05:17:15;12.70;;;9.00;;
2944;SDS011;1482;51.398;7.128;2023-04-24T05:19:41;11.87;;;9.90;;
2944;SDS011;1482;51.398;7.128;2023-04-24T05:22:06;11.20;;;10.00;;
2944;SDS011;1482;51.398;7.128;2023-04-24T05:24:33;10.93;;;9.83;;
2944;SDS011;1482;51.398;7.128;2023-04-24T05:26:59;12.83;;;9.50;;
2944;SDS011;1482;51.398;7.128;2023-04-24T05:29:25;10.13;;;9.07;;
2944;SDS011;1482;51.398;7.128;2023-04-24T05:31:51;14.70;;;10.27;;
2944;SDS011;1482;51.398;7.128;2023-04-24T05:34:17;13.03;;;11.00;;
2944;SDS011;1482;51.398;7.128;2023-04-24T05:36:43;11.80;;;10.70;;
2944;SDS011;1482;51.398;7.128;2023-04-24T05:39:08;11.93;;;9.67;;
2944;SDS011;1482;51.398;7.128;2023-04-24T05:41:34;13.80;;;10.73;;
2944;SDS011;1482;51.398;7.128;2023-04-24T05:44:00;15.07;;;11.70;;
2944;SDS011;1482;51.398;7.128;2023-04-24T05:46:25;15.00;;;11.10;;
2944;SDS011;1482;51.398;7.128;2023-04-24T05:48:51;15.57;;;11.93;;
2944;SDS011;1482;51.398;7.128;2023-04-24T05:51:16;14.43;;;11.60;;
2944;SDS011;1482;51.398;7.128;2023-04-24T05:53:42;16.80;;;11.93;;
2944;SDS011;1482;51.398;7.128;2023-04-24T05:56:07;15.13;;;10.90;;
2944;SDS011;1482;51.398;7.128;2023-04-24T05:58:33;14.47;;;10.77;;
2944;SDS011;1482;51.398;7.128;2023-04-24T06:00:59;13.90;;;10.30;;
2944;SDS011;1482;51.398;7.128;2023-04-24T06:03:26;18.43;;;10.40;;
2944;SDS011;1482;51.398;7.128;2023-04-24T06:05:52;14.00;;;8.67;;
2944;SDS011;1482;51.398;7.128;2023-04-24T06:08:18;12.70;;;10.37;;
2944;SDS011;1482;51.398;7.128;2023-04-24T06:10:43;12.90;;;9.97;;
2944;SDS011;1482;51.398;7.128;2023-04-24T06:13:09;9.60;;;8.60;;
2944;SDS011;1482;51.398;7.128;2023-04-24T06:15:35;9.33;;;8.40;;
2944;SDS011;1482;51.398;7.128;2023-04-24T06:18:00;14.53;;;10.73;;
2944;SDS011;1482;51.398;7.128;2023-04-24T06:20:26;12.47;;;9.60;;
2944;SDS011;1482;51.398;7.128;2023-04-24T06:22:51;12.37;;;9.90;;
2944;SDS011;1482;51.398;7.128;2023-04-24T06:25:17;12.67;;;9.10;;
2944;SDS011;1482;51.398;7.128;2023-04-24T06:27:43;9.67;;;8.67;;
2944;SDS011;1482;51.398;7.128;2023-04-24T06:30:09;13.20;;;8.90;;
2944;SDS011;1482;51.398;7.128;2023-04-24T06:32:35;11.40;;;8.87;;
2944;SDS011;1482;51.398;7.128;2023-04-24T06:35:01;10.13;;;7.87;;
2944;SDS011;1482;51.398;7.128;2023-04-24T06:37:27;11.20;;;7.13;;
2944;SDS011;1482;51.398;7.128;2023-04-24T06:39:52;7.60;;;6.73;;
2944;SDS011;1482;51.398;7.128;2023-04-24T06:42:18;8.80;;;7.90;;
2944;SDS011;1482;51.398;7.128;2023-04-24T06:44:45;9.27;;;7.70;;
2944;SDS011;1482;51.398;7.128;2023-04-24T06:47:11;8.50;;;7.60;;
2944;SDS011;1482;51.398;7.128;2023-04-24T06:49:38;8.77;;;7.10;;
2944;SDS011;1482;51.398;7.128;2023-04-24T06:52:04;9.43;;;8.43;;
2944;SDS011;1482;51.398;7.128;2023-04-24T06:54:31;9.00;;;7.27;;
2944;SDS011;1482;51.398;7.128;2023-04-24T06:56:57;8.10;;;7.30;;
2944;SDS011;1482;51.398;7.128;2023-04-24T06:59:23;9.83;;;7.50;;
2944;SDS011;1482;51.398;7.128;2023-04-24T07:01:49;8.50;;;7.60;;
2944;SDS011;1482;51.398;7.128;2023-04-24T07:04:16;7.90;;;6.50;;
2944;SDS011;1482;51.398;7.128;2023-04-24T07:06:41;9.80;;;7.00;;
2944;SDS011;1482;51.398;7.128;2023-04-24T07:09:08;7.17;;;6.47;;
2944;SDS011;1482;51.398;7.128;2023-04-24T07:11:34;6.00;;;5.30;;
2944;SDS011;1482;51.398;7.128;2023-04-24T07:14:00;10.40;;;5.80;;
2944;SDS011;1482;51.398;7.128;2023-04-24T07:16:25;5.70;;;5.10;;
2944;SDS011;1482;51.398;7.128;2023-04-24T07:18:52;4.97;;;4.57;;
2944;SDS011;1482;51.398;7.128;2023-04-24T07:21:17;6.80;;;4.70;;
2944;SDS011;1482;51.398;7.128;2023-04-24T07:23:43;5.53;;;4.50;;
2944;SDS011;1482;51.398;7.128;2023-04-24T07:26:08;5.57;;;5.07;;
2944;SDS011;1482;51.398;7.128;2023-04-24T07:28:34;4.90;;;4.50;;
2944;SDS011;1482;51.398;7.128;2023-04-24T07:30:59;6.90;;;5.93;;
2944;SDS011;1482;51.398;7.128;2023-04-24T07:33:25;5.83;;;5.23;;
2944;SDS011;1482;51.398;7.128;2023-04-24T07:35:51;7.60;;;6.40;;
2944;SDS011;1482;51.398;7.128;2023-04-24T07:38:17;4.23;;;3.83;;
2944;SDS011;1482;51.398;7.128;2023-04-24T07:40:46;4.67;;;3.57;;
2944;SDS011;1482;51.398;7.128;2023-04-24T07:43:12;3.60;;;3.40;;
2944;SDS011;1482;51.398;7.128;2023-04-24T07:45:37;4.37;;;2.97;;
2944;SDS011;1482;51.398;7.128;2023-04-24T07:48:04;2.80;;;2.40;;
2944;SDS011;1482;51.398;7.128;2023-04-24T07:50:30;2.70;;;2.20;;
2944;SDS011;1482;51.398;7.128;2023-04-24T07:52:56;2.37;;;2.10;;
2944;SDS011;1482;51.398;7.128;2023-04-24T07:55:22;2.20;;;2.00;;
2944;SDS011;1482;51.398;7.128;2023-04-24T07:57:48;1.80;;;1.70;;
2944;SDS011;1482;51.398;7.128;2023-04-24T08:00:14;3.10;;;2.00;;
2944;SDS011;1482;51.398;7.128;2023-04-24T08:02:39;1.60;;;1.50;;
2944;SDS011;1482;51.398;7.128;2023-04-24T08:05:05;2.97;;;1.90;;
2944;SDS011;1482;51.398;7.128;2023-04-24T08:07:31;3.27;;;3.07;;
2944;SDS011;1482;51.398;7.128;2023-04-24T08:09:57;1.70;;;1.60;;
2944;SDS011;1482;51.398;7.128;2023-04-24T08:12:24;2.20;;;1.60;;
2944;SDS011;1482;51.398;7.128;2023-04-24T08:14:50;1.93;;;1.50;;
2944;SDS011;1482;51.398;7.128;2023-04-24T08:17:16;1.50;;;1.40;;
2944;SDS011;1482;51.398;7.128;2023-04-24T08:19:42;5.90;;;1.10;;
2944;SDS011;1482;51.398;7.128;2023-04-24T08:22:12;1.10;;;0.93;;
2944;SDS011;1482;51.398;7.128;2023-04-24T08:24:38;1.87;;;1.30;;
2944;SDS011;1482;51.398;7.128;2023-04-24T08:27:03;7.40;;;1.60;;
2944;SDS011;1482;51.398;7.128;2023-04-24T08:29:29;5.07;;;1.17;;
2944;SDS011;1482;51.398;7.128;2023-04-24T08:31:54;1.17;;;1.07;;
2944;SDS011;1482;51.398;7.128;2023-04-24T08:34:20;1.87;;;1.33;;
2944;SDS011;1482;51.398;7.128;2023-04-24T08:36:46;1.20;;;1.10;;
2944;SDS011;1482;51.398;7.128;2023-04-24T08:39:12;1.50;;;1.23;;
2944;SDS011;1482;51.398;7.128;2023-04-24T08:41:38;3.10;;;1.20;;
2944;SDS011;1482;51.398;7.128;2023-04-24T08:44:07;1.30;;;1.20;;
2944;SDS011;1482;51.398;7.128;2023-04-24T08:46:34;1.10;;;1.00;;
2944;SDS011;1482;51.398;7.128;2023-04-24T08:49:01;1.30;;;1.20;;
2944;SDS011;1482;51.398;7.128;2023-04-24T08:51:28;2.10;;;1.50;;
2944;SDS011;1482;51.398;7.128;2023-04-24T08:53:55;3.77;;;1.27;;
2944;SDS011;1482;51.398;7.128;2023-04-24T08:56:22;2.70;;;1.50;;
2944;SDS011;1482;51.398;7.128;2023-04-24T08:58:50;1.33;;;1.23;;
2944;SDS011;1482;51.398;7.128;2023-04-24T09:01:16;3.67;;;1.40;;
2944;SDS011;1482;51.398;7.128;2023-04-24T09:03:43;2.17;;;1.60;;
2944;SDS011;1482;51.398;7.128;2023-04-24T09:06:09;1.90;;;1.70;;
2944;SDS011;1482;51.398;7.128;2023-04-24T09:08:36;2.30;;;2.10;;
2944;SDS011;1482;51.398;7.128;2023-04-24T09:11:03;2.10;;;1.90;;
2944;SDS011;1482;51.398;7.128;2023-04-24T09:13:29;2.13;;;2.03;;
2944;SDS011;1482;51.398;7.128;2023-04-24T09:15:55;1.90;;;1.80;;
2944;SDS011;1482;51.398;7.128;2023-04-24T09:18:22;2.27;;;1.60;;
2944;SDS011;1482;51.398;7.128;2023-04-24T09:21:07;1.87;;;1.77;;
2944;SDS011;1482;51.398;7.128;2023-04-24T09:23:33;1.50;;;1.40;;
2944;SDS011;1482;51.398;7.128;2023-04-24T09:25:59;1.67;;;1.43;;
2944;SDS011;1482;51.398;7.128;2023-04-24T09:28:26;2.37;;;2.10;;
2944;SDS011;1482;51.398;7.128;2023-04-24T09:31:09;2.47;;;2.27;;
2944;SDS011;1482;51.398;7.128;2023-04-24T09:33:35;2.03;;;1.70;;
2944;SDS011;1482;51.398;7.128;2023-04-24T09:36:02;3.43;;;2.40;;
2944;SDS011;1482;51.398;7.128;2023-04-24T09:38:31;3.40;;;3.10;;
2944;SDS011;1482;51.398;7.128;2023-04-24T09:40:59;3.60;;;3.30;;
2944;SDS011;1482;51.398;7.128;2023-04-24T09:43:27;6.27;;;4.20;;
2944;SDS011;1482;51.398;7.128;2023-04-24T09:45:55;5.13;;;4.63;;
2944;SDS011;1482;51.398;7.128;2023-04-24T09:48:31;5.77;;;5.10;;
2944;SDS011;1482;51.398;7.128;2023-04-24T09:50:58;6.30;;;5.00;;
2944;SDS011;1482;51.398;7.128;2023-04-24T09:53:24;4.70;;;4.30;;
2944;SDS011;1482;51.398;7.128;2023-04-24T09:55:51;4.60;;;4.20;;
2944;SDS011;1482;51.398;7.128;2023-04-24T09:58:18;4.20;;;3.50;;
2944;SDS011;1482;51.398;7.128;2023-04-24T10:00:43;5.20;;;3.70;;
2944;SDS011;1482;51.398;7.128;2023-04-24T10:03:11;4.10;;;2.87;;
2944;SDS011;1482;51.398;7.128;2023-04-24T10:05:37;4.73;;;3.80;;
2944;SDS011;1482;51.398;7.128;2023-04-24T10:08:08;3.53;;;3.23;;
2944;SDS011;1482;51.398;7.128;2023-04-24T10:10:37;7.00;;;3.47;;
2944;SDS011;1482;51.398;7.128;2023-04-24T10:13:05;4.10;;;3.70;;
2944;SDS011;1482;51.398;7.128;2023-04-24T10:15:32;7.50;;;3.80;;
2944;SDS011;1482;51.398;7.128;2023-04-24T10:17:58;5.90;;;4.37;;
2944;SDS011;1482;51.398;7.128;2023-04-24T10:20:26;7.33;;;4.87;;
2944;SDS011;1482;51.398;7.128;2023-04-24T10:22:54;6.43;;;4.77;;
2944;SDS011;1482;51.398;7.128;2023-04-24T10:25:21;10.10;;;4.93;;
2944;SDS011;1482;51.398;7.128;2023-04-24T10:27:49;5.70;;;5.10;;
2944;SDS011;1482;51.398;7.128;2023-04-24T10:30:16;5.83;;;5.27;;
2944;SDS011;1482;51.398;7.128;2023-04-24T10:32:43;8.23;;;5.87;;
2944;SDS011;1482;51.398;7.128;2023-04-24T10:35:09;7.93;;;5.57;;
2944;SDS011;1482;51.398;7.128;2023-04-24T10:37:37;6.73;;;5.83;;
2944;SDS011;1482;51.398;7.128;2023-04-24T10:40:09;8.50;;;5.20;;
2944;SDS011;1482;51.398;7.128;2023-04-24T10:42:39;9.53;;;5.10;;
2944;SDS011;1482;51.398;7.128;2023-04-24T10:45:15;5.90;;;4.83;;
2944;SDS011;1482;51.398;7.128;2023-04-24T10:47:52;11.73;;;5.73;;
2944;SDS011;1482;51.398;7.128;2023-04-24T10:50:18;8.03;;;6.30;;
2944;SDS011;1482;51.398;7.128;2023-04-24T10:52:47;9.30;;;6.17;;
2944;SDS011;1482;51.398;7.128;2023-04-24T10:55:16;6.63;;;5.77;;
2944;SDS011;1482;51.398;7.128;2023-04-24T10:58:05;9.80;;;6.10;;
2944;SDS011;1482;51.398;7.128;2023-04-24T11:00:30;10.90;;;6.07;;
2944;SDS011;1482;51.398;7.128;2023-04-24T11:02:56;11.33;;;6.00;;
2944;SDS011;1482;51.398;7.128;2023-04-24T11:05:22;13.90;;;6.27;;
2944;SDS011;1482;51.398;7.128;2023-04-24T11:08:16;13.13;;;6.00;;
2944;SDS011;1482;51.398;7.128;2023-04-24T11:11:33;14.53;;;6.33;;
2944;SDS011;1482;51.398;7.128;2023-04-24T11:19:10;11.37;;;5.63;;
2944;SDS011;1482;51.398;7.128;2023-04-24T11:21:58;9.83;;;7.20;;
2944;SDS011;1482;51.398;7.128;2023-04-24T11:24:26;17.07;;;6.93;;
2944;SDS011;1482;51.398;7.128;2023-04-24T11:27:06;19.10;;;6.20;;
2944;SDS011;1482;51.398;7.128;2023-04-24T11:32:29;14.43;;;5.53;;
2944;SDS011;1482;51.398;7.128;2023-04-24T11:35:02;8.83;;;5.23;;
2944;SDS011;1482;51.398;7.128;2023-04-24T11:37:40;6.03;;;5.00;;
2944;SDS011;1482;51.398;7.128;2023-04-24T11:40:11;11.77;;;6.40;;
2944;SDS011;1482;51.398;7.128;2023-04-24T11:42:41;11.27;;;6.77;;
2944;SDS011;1482;51.398;7.128;2023-04-24T11:47:40;9.30;;;6.47;;
2944;SDS011;1482;51.398;7.128;2023-04-24T11:50:08;13.07;;;6.23;;
2944;SDS011;1482;51.398;7.128;2023-04-24T11:52:39;8.73;;;5.23;;
2944;SDS011;1482;51.398;7.128;2023-04-24T11:55:28;17.77;;;7.00;;
2944;SDS011;1482;51.398;7.128;2023-04-24T11:57:55;14.60;;;6.07;;
2944;SDS011;1482;51.398;7.128;2023-04-24T12:00:23;10.10;;;5.37;;
2944;SDS011;1482;51.398;7.128;2023-04-24T12:03:02;14.00;;;6.53;;
2944;SDS011;1482;51.398;7.128;2023-04-24T12:05:32;15.63;;;6.30;;
2944;SDS011;1482;51.398;7.128;2023-04-24T12:07:58;10.80;;;4.67;;
2944;SDS011;1482;51.398;7.128;2023-04-24T12:10:24;9.30;;;4.20;;
2944;SDS011;1482;51.398;7.128;2023-04-24T12:12:52;11.37;;;4.43;;
2944;SDS011;1482;51.398;7.128;2023-04-24T12:15:21;8.87;;;4.50;;
2944;SDS011;1482;51.398;7.128;2023-04-24T12:17:47;15.20;;;5.70;;
2944;SDS011;1482;51.398;7.128;2023-04-24T12:20:16;15.93;;;6.67;;
2944;SDS011;1482;51.398;7.128;2023-04-24T12:25:19;7.93;;;4.80;;
2944;SDS011;1482;51.398;7.128;2023-04-24T12:27:46;12.93;;;5.80;;
2944;SDS011;1482;51.398;7.128;2023-04-24T12:30:18;6.93;;;5.50;;
2944;SDS011;1482;51.398;7.128;2023-04-24T12:32:45;15.43;;;5.87;;
2944;SDS011;1482;51.398;7.128;2023-04-24T12:35:12;11.30;;;6.27;;
2944;SDS011;1482;51.398;7.128;2023-04-24T12:37:38;9.57;;;5.30;;
2944;SDS011;1482;51.398;7.128;2023-04-24T12:40:08;13.20;;;5.40;;
2944;SDS011;1482;51.398;7.128;2023-04-24T12:42:41;9.00;;;4.07;;
2944;SDS011;1482;51.398;7.128;2023-04-24T12:45:08;6.73;;;4.10;;
2944;SDS011;1482;51.398;7.128;2023-04-24T12:47:36;6.07;;;3.37;;
2944;SDS011;1482;51.398;7.128;2023-04-24T12:50:02;8.73;;;3.90;;
2944;SDS011;1482;51.398;7.128;2023-04-24T12:52:28;9.00;;;4.70;;
2944;SDS011;1482;51.398;7.128;2023-04-24T12:54:58;11.50;;;6.10;;
2944;SDS011;1482;51.398;7.128;2023-04-24T12:57:26;6.50;;;4.30;;
2944;SDS011;1482;51.398;7.128;2023-04-24T12:59:57;6.70;;;3.60;;
2944;SDS011;1482;51.398;7.128;2023-04-24T13:02:24;9.40;;;5.23;;
2944;SDS011;1482;51.398;7.128;2023-04-24T13:04:50;5.73;;;3.80;;
2944;SDS011;1482;51.398;7.128;2023-04-24T13:07:17;7.27;;;4.20;;
2944;SDS011;1482;51.398;7.128;2023-04-24T13:09:43;4.73;;;3.50;;
2944;SDS011;1482;51.398;7.128;2023-04-24T13:12:10;3.33;;;2.93;;
2944;SDS011;1482;51.398;7.128;2023-04-24T13:14:36;6.50;;;3.60;;
2944;SDS011;1482;51.398;7.128;2023-04-24T13:17:02;6.50;;;2.70;;
2944;SDS011;1482;51.398;7.128;2023-04-24T13:19:28;5.10;;;2.77;;
2944;SDS011;1482;51.398;7.128;2023-04-24T13:21:55;4.63;;;3.03;;
2944;SDS011;1482;51.398;7.128;2023-04-24T13:24:25;3.43;;;2.37;;
2944;SDS011;1482;51.398;7.128;2023-04-24T13:26:51;4.80;;;3.50;;
2944;SDS011;1482;51.398;7.128;2023-04-24T13:29:17;5.80;;;5.30;;
2944;SDS011;1482;51.398;7.128;2023-04-24T13:31:43;5.97;;;2.87;;
2944;SDS011;1482;51.398;7.128;2023-04-24T13:34:08;3.87;;;2.40;;
2944;SDS011;1482;51.398;7.128;2023-04-24T13:36:34;8.23;;;2.83;;
2944;SDS011;1482;51.398;7.128;2023-04-24T13:39:00;3.00;;;2.00;;
2944;SDS011;1482;51.398;7.128;2023-04-24T13:41:25;8.33;;;3.17;;
2944;SDS011;1482;51.398;7.128;2023-04-24T13:43:51;9.60;;;3.37;;
2944;SDS011;1482;51.398;7.128;2023-04-24T13:46:17;15.17;;;2.93;;
2944;SDS011;1482;51.398;7.128;2023-04-24T13:48:42;4.43;;;2.10;;
2944;SDS011;1482;51.398;7.128;2023-04-24T13:51:08;3.40;;;1.73;;
2944;SDS011;1482;51.398;7.128;2023-04-24T13:53:33;2.03;;;1.63;;
2944;SDS011;1482;51.398;7.128;2023-04-24T13:56:03;4.30;;;2.13;;
2944;SDS011;1482;51.398;7.128;2023-04-24T13:58:28;3.90;;;2.13;;
2944;SDS011;1482;51.398;7.128;2023-04-24T14:00:54;8.67;;;1.97;;
2944;SDS011;1482;51.398;7.128;2023-04-24T14:03:20;2.73;;;2.30;;
2944;SDS011;1482;51.398;7.128;2023-04-24T14:05:46;2.83;;;1.83;;
2944;SDS011;1482;51.398;7.128;2023-04-24T14:08:11;4.00;;;2.87;;
2944;SDS011;1482;51.398;7.128;2023-04-24T14:10:37;4.17;;;1.60;;
2944;SDS011;1482;51.398;7.128;2023-04-24T14:13:02;2.40;;;2.00;;
2944;SDS011;1482;51.398;7.128;2023-04-24T14:15:28;3.70;;;3.00;;
2944;SDS011;1482;51.398;7.128;2023-04-24T14:17:54;3.93;;;3.53;;
2944;SDS011;1482;51.398;7.128;2023-04-24T14:20:19;4.53;;;2.47;;
2944;SDS011;1482;51.398;7.128;2023-04-24T14:22:45;3.60;;;2.80;;
2944;SDS011;1482;51.398;7.128;2023-04-24T14:25:10;4.53;;;3.13;;
2944;SDS011;1482;51.398;7.128;2023-04-24T14:27:36;3.20;;;2.87;;
2944;SDS011;1482;51.398;7.128;2023-04-24T14:30:02;6.00;;;3.03;;
2944;SDS011;1482;51.398;7.128;2023-04-24T14:32:28;7.10;;;4.10;;
2944;SDS011;1482;51.398;7.128;2023-04-24T14:34:53;8.20;;;3.27;;
2944;SDS011;1482;51.398;7.128;2023-04-24T14:37:19;4.50;;;1.90;;
2944;SDS011;1482;51.398;7.128;2023-04-24T14:39:45;5.20;;;2.80;;
2944;SDS011;1482;51.398;7.128;2023-04-24T14:42:10;4.03;;;2.40;;
2944;SDS011;1482;51.398;7.128;2023-04-24T14:44:36;3.00;;;2.30;;
2944;SDS011;1482;51.398;7.128;2023-04-24T14:47:01;4.00;;;2.47;;
2944;SDS011;1482;51.398;7.128;2023-04-24T14:49:27;4.87;;;3.00;;
2944;SDS011;1482;51.398;7.128;2023-04-24T14:51:52;4.10;;;2.50;;
2944;SDS011;1482;51.398;7.128;2023-04-24T14:54:18;4.60;;;2.80;;
2944;SDS011;1482;51.398;7.128;2023-04-24T14:56:44;3.80;;;2.53;;
2944;SDS011;1482;51.398;7.128;2023-04-24T14:59:10;4.50;;;3.53;;
2944;SDS011;1482;51.398;7.128;2023-04-24T15:01:35;6.37;;;3.10;;
2944;SDS011;1482;51.398;7.128;2023-04-24T15:04:01;6.40;;;2.57;;
2944;SDS011;1482;51.398;7.128;2023-04-24T15:06:27;4.70;;;2.00;;
2944;SDS011;1482;51.398;7.128;2023-04-24T15:08:52;7.97;;;1.90;;
2944;SDS011;1482;51.398;7.128;2023-04-24T15:11:18;5.87;;;3.00;;
2944;SDS011;1482;51.398;7.128;2023-04-24T15:13:43;5.67;;;2.53;;
2944;SDS011;1482;51.398;7.128;2023-04-24T15:16:12;4.67;;;2.27;;
2944;SDS011;1482;51.398;7.128;2023-04-24T15:18:37;5.40;;;1.77;;